createdAt,value
2019-04-07T00:00:52.283Z,30.95
2019-04-07T00:15:51.168Z,31.93
2019-04-07T00:30:55.956Z,28.77
2019-04-07T01:00:53.973Z,26.90
2019-04-07T01:15:50.847Z,26.75
2019-04-07T01:30:51.608Z,26.82
2019-04-07T01:45:58.846Z,22.95
2019-04-07T02:30:52.617Z,23.60
2019-04-07T03:00:59.323Z,24.40
2019-04-07T03:15:54.556Z,23.00
2019-04-07T03:30:57.243Z,23.38
2019-04-07T04:15:53.099Z,27.32
2019-04-07T04:30:50.847Z,27.13
2019-04-07T04:45:50.675Z,22.32
2019-04-07T05:00:50.836Z,21.27
2019-04-07T05:15:51.122Z,20.85
2019-04-07T05:30:51.744Z,21.95
2019-04-07T05:45:50.985Z,24.90
2019-04-07T06:00:50.790Z,22.67
2019-04-07T06:15:52.897Z,18.10
2019-04-07T06:30:51.125Z,19.45
2019-04-07T07:30:52.380Z,23.00
2019-04-07T07:45:50.380Z,27.07
2019-04-07T08:00:50.619Z,34.48
2019-04-07T08:15:51.257Z,30.02
2019-04-07T08:30:52.635Z,28.17
2019-04-07T08:45:55.331Z,24.20
2019-04-07T09:00:53.972Z,24.00
2019-04-07T09:15:55.695Z,21.20
2019-04-07T10:15:53.254Z,17.87
2019-04-07T10:30:58.654Z,17.52
2019-04-07T11:00:52.710Z,16.10
2019-04-07T11:45:59.153Z,16.20
2019-04-07T12:00:55.299Z,15.20
2019-04-07T12:45:53.668Z,14.80
2019-04-07T13:01:01.348Z,12.98
2019-04-07T13:15:55.209Z,14.60
2019-04-07T13:45:53.859Z,14.83
2019-04-07T14:15:54.079Z,17.23
2019-04-07T15:01:02.691Z,16.93
2019-04-07T15:15:51.664Z,18.40
2019-04-07T15:30:54.089Z,20.00
2019-04-07T15:45:51.060Z,22.87
2019-04-07T16:00:51.662Z,22.48
2019-04-07T16:15:57.553Z,23.57
2019-04-07T16:30:54.643Z,23.77
2019-04-07T16:45:50.776Z,26.85
2019-04-07T17:00:56.168Z,28.95
2019-04-07T17:15:54.082Z,25.43
2019-04-07T17:30:50.691Z,22.15
2019-04-07T18:45:55.208Z,25.88
2019-04-07T19:00:55.378Z,25.88
2019-04-07T19:30:52.596Z,19.25
2019-04-07T20:00:56.805Z,17.32
2019-04-07T20:15:54.630Z,19.60
2019-04-07T21:01:00.672Z,24.57
2019-04-07T21:30:55.794Z,23.85
2019-04-07T22:15:57.893Z,25.10
2019-04-07T22:30:52.688Z,27.05
2019-04-07T22:45:59.058Z,28.65
2019-04-07T23:00:50.616Z,27.02
2019-04-07T23:15:50.963Z,31.17
2019-04-07T23:30:51.373Z,31.48
2019-04-07T23:45:51.704Z,30.52
